createdAt,value
2017-08-19T00:00:30.824Z,30.13
2017-08-19T00:02:59.049Z,29.57
2017-08-19T00:05:26.499Z,26.57
2017-08-19T00:07:54.068Z,33.57
2017-08-19T00:10:22.295Z,32.90
2017-08-19T00:12:49.867Z,29.70
2017-08-19T00:15:18.131Z,26.83
2017-08-19T00:17:46.387Z,27.70
2017-08-19T00:20:14.631Z,26.33
2017-08-19T00:22:42.096Z,30.10
2017-08-19T00:25:10.352Z,31.10
2017-08-19T00:27:38.760Z,27.93
2017-08-19T00:30:06.212Z,29.67
2017-08-19T00:32:33.702Z,28.67
2017-08-19T00:35:02.160Z,30.47
2017-08-19T00:37:29.615Z,34.77
2017-08-19T00:39:57.864Z,31.20
2017-08-19T00:42:26.229Z,31.13
2017-08-19T00:44:54.460Z,25.10
2017-08-19T00:47:21.930Z,24.13
2017-08-19T00:49:50.189Z,32.03
2017-08-19T00:52:18.452Z,22.70
2017-08-19T00:54:46.808Z,29.47
2017-08-19T00:57:15.036Z,32.30
2017-08-19T00:59:42.515Z,24.37
2017-08-19T01:02:10.972Z,22.40
2017-08-19T01:04:39.204Z,23.50
2017-08-19T01:07:06.783Z,18.53
2017-08-19T01:09:35.248Z,28.63
2017-08-19T01:12:02.712Z,17.30
2017-08-19T01:14:30.168Z,16.57
2017-08-19T01:16:57.672Z,22.50
2017-08-19T01:19:25.899Z,22.33
2017-08-19T01:21:53.372Z,24.10
2017-08-19T01:24:21.740Z,28.77
2017-08-19T01:26:57.928Z,21.23
2017-08-19T01:29:25.404Z,30.50
2017-08-19T01:31:52.859Z,33.70
2017-08-19T01:34:21.093Z,32.30
2017-08-19T01:36:48.663Z,29.43
2017-08-19T01:39:16.216Z,30.27
2017-08-19T01:41:44.480Z,21.63
2017-08-19T01:44:12.711Z,25.67
2017-08-19T01:46:40.277Z,27.00
2017-08-19T01:49:08.531Z,31.03
2017-08-19T01:51:36.084Z,26.23
2017-08-19T01:54:04.344Z,25.30
2017-08-19T01:56:32.799Z,30.50
2017-08-19T01:59:00.263Z,28.00
2017-08-19T02:01:27.728Z,25.60
2017-08-19T02:03:55.208Z,32.57
2017-08-19T02:06:22.771Z,23.07
2017-08-19T02:08:51.036Z,20.67
2017-08-19T02:11:19.392Z,26.23
2017-08-19T02:13:46.936Z,32.00
2017-08-19T02:16:15.163Z,23.50
2017-08-19T02:18:42.799Z,22.10
2017-08-19T02:21:10.264Z,19.57
2017-08-19T02:23:37.723Z,26.57
2017-08-19T02:26:06.913Z,22.53
2017-08-19T02:28:35.172Z,28.00
2017-08-19T02:31:03.431Z,24.13
2017-08-19T02:33:31.695Z,16.93
2017-08-19T02:35:59.953Z,15.77
2017-08-19T02:38:28.181Z,20.20
2017-08-19T02:40:55.908Z,18.07
2017-08-19T02:43:23.403Z,26.47
2017-08-19T02:45:51.662Z,20.80
2017-08-19T02:48:20.128Z,22.70
2017-08-19T02:50:48.388Z,16.30
2017-08-19T02:53:16.615Z,22.73
2017-08-19T02:55:44.287Z,16.97
2017-08-19T02:58:11.740Z,26.93
2017-08-19T03:00:39.995Z,21.90
2017-08-19T03:03:08.248Z,16.10
2017-08-19T03:05:36.621Z,17.37
2017-08-19T03:08:04.876Z,18.50
2017-08-19T03:10:32.341Z,20.47
2017-08-19T03:12:59.866Z,16.50
2017-08-19T03:15:28.120Z,14.70
2017-08-19T03:17:56.344Z,17.03
2017-08-19T03:20:23.825Z,16.37
2017-08-19T03:22:52.080Z,18.20
2017-08-19T03:25:20.344Z,17.00
2017-08-19T03:27:48.603Z,15.63
2017-08-19T03:30:16.844Z,18.77
2017-08-19T03:32:44.307Z,11.50
2017-08-19T03:35:12.567Z,13.27
2017-08-19T03:37:40.809Z,13.10
2017-08-19T03:40:08.268Z,14.07
2017-08-19T03:42:36.493Z,19.63
2017-08-19T03:45:04.172Z,31.62
2017-08-19T03:47:32.441Z,12.25
2017-08-19T03:50:00.691Z,16.33
2017-08-19T03:52:29.055Z,18.00
2017-08-19T03:54:57.279Z,14.73
2017-08-19T03:57:24.764Z,16.87
2017-08-19T03:59:53.196Z,17.83
2017-08-19T04:02:20.765Z,23.75
2017-08-19T04:04:49.028Z,16.40
2017-08-19T04:07:17.383Z,18.17
2017-08-19T04:09:45.619Z,15.50
2017-08-19T04:12:13.091Z,22.15
2017-08-19T04:14:41.557Z,16.00
2017-08-19T04:17:09.791Z,27.23
2017-08-19T04:19:37.356Z,12.70
2017-08-19T04:22:05.845Z,19.70
2017-08-19T04:24:34.060Z,16.62
2017-08-19T04:27:01.513Z,12.43
2017-08-19T04:29:29.074Z,15.67
2017-08-19T04:31:57.295Z,12.40
2017-08-19T04:34:24.770Z,15.43
2017-08-19T04:36:53.235Z,12.57
2017-08-19T04:39:21.499Z,19.27
2017-08-19T04:41:48.959Z,16.80
2017-08-19T04:44:16.480Z,19.98
2017-08-19T04:46:44.700Z,11.37
2017-08-19T04:49:12.196Z,18.80
2017-08-19T04:51:39.729Z,18.93
2017-08-19T04:54:07.217Z,12.10
2017-08-19T04:56:34.668Z,17.27
2017-08-19T04:59:02.244Z,16.70
2017-08-19T05:01:30.511Z,18.55
2017-08-19T05:03:58.783Z,25.75
2017-08-19T05:06:27.015Z,13.50
2017-08-19T05:08:54.837Z,15.07
2017-08-19T05:11:22.424Z,15.73
2017-08-19T05:13:50.644Z,17.10
2017-08-19T05:16:18.097Z,15.23
2017-08-19T05:18:45.671Z,17.67
2017-08-19T05:21:13.928Z,15.73
2017-08-19T05:23:42.200Z,18.20
2017-08-19T05:26:10.639Z,19.17
2017-08-19T05:28:38.184Z,17.73
2017-08-19T05:31:05.739Z,18.93
2017-08-19T05:33:33.294Z,16.53
2017-08-19T05:36:01.508Z,22.93
2017-08-19T05:38:28.965Z,25.50
2017-08-19T05:40:56.535Z,14.67
2017-08-19T05:43:24.799Z,18.63
2017-08-19T05:45:53.120Z,12.40
2017-08-19T05:48:20.580Z,21.93
2017-08-19T05:50:48.135Z,16.87
2017-08-19T05:53:16.396Z,15.53
2017-08-19T05:55:44.662Z,23.57
2017-08-19T05:58:12.884Z,10.83
2017-08-19T06:00:40.460Z,13.47
2017-08-19T06:03:08.724Z,12.83
2017-08-19T06:05:36.948Z,20.93
2017-08-19T06:08:04.536Z,16.90
2017-08-19T06:10:32.792Z,10.77
2017-08-19T06:13:01.166Z,13.23
2017-08-19T06:15:29.388Z,18.97
2017-08-19T06:17:56.851Z,21.67
2017-08-19T06:20:25.316Z,15.47
2017-08-19T06:22:52.859Z,13.93
2017-08-19T06:25:21.124Z,9.13
2017-08-19T06:27:49.389Z,11.00
2017-08-19T06:30:17.639Z,17.17
2017-08-19T06:32:45.084Z,7.47
2017-08-19T06:35:13.339Z,13.20
2017-08-19T06:37:41.600Z,21.47
2017-08-19T06:40:09.836Z,17.97
2017-08-19T06:42:37.305Z,10.70
2017-08-19T06:45:05.563Z,14.30
2017-08-19T06:47:33.823Z,12.87
2017-08-19T06:50:02.084Z,8.07
2017-08-19T06:52:30.548Z,18.67
2017-08-19T06:54:58.813Z,12.33
2017-08-19T06:57:27.071Z,11.90
2017-08-19T06:59:55.326Z,15.50
2017-08-19T07:02:23.551Z,14.43
2017-08-19T07:04:51.232Z,13.23
2017-08-19T07:07:19.492Z,9.17
2017-08-19T07:09:47.759Z,17.23
2017-08-19T07:12:16.215Z,12.23
2017-08-19T07:14:43.689Z,14.00
2017-08-19T07:17:11.206Z,10.50
2017-08-19T07:19:39.656Z,19.70
2017-08-19T07:22:07.107Z,9.80
2017-08-19T07:24:35.336Z,12.07
2017-08-19T07:27:02.828Z,11.33
2017-08-19T07:29:31.136Z,11.10
2017-08-19T07:31:58.594Z,10.40
2017-08-19T07:34:26.159Z,11.83
2017-08-19T07:36:54.404Z,14.40
2017-08-19T07:39:21.964Z,19.80
2017-08-19T07:41:50.224Z,12.93
2017-08-19T07:44:18.444Z,16.73
2017-08-19T07:46:45.936Z,11.80
2017-08-19T07:49:14.344Z,14.10
2017-08-19T07:51:41.828Z,9.80
2017-08-19T07:54:10.087Z,9.63
2017-08-19T07:56:37.632Z,13.27
2017-08-19T07:59:05.895Z,13.13
2017-08-19T08:01:34.360Z,17.93
2017-08-19T08:04:02.588Z,6.73
2017-08-19T08:06:30.061Z,14.40
2017-08-19T08:08:58.528Z,15.10
2017-08-19T08:11:26.752Z,12.77
2017-08-19T08:13:54.232Z,9.33
2017-08-19T08:16:22.489Z,19.37
2017-08-19T08:18:50.716Z,16.37
2017-08-19T08:21:18.341Z,11.00
2017-08-19T08:23:45.836Z,8.47
2017-08-19T08:26:14.062Z,9.50
2017-08-19T08:28:41.635Z,11.77
2017-08-19T08:31:09.902Z,12.07
2017-08-19T08:33:38.163Z,10.97
2017-08-19T08:36:06.728Z,9.70
2017-08-19T08:38:34.992Z,7.80
2017-08-19T08:41:03.248Z,11.73
2017-08-19T08:43:31.514Z,15.83
2017-08-19T08:45:59.768Z,12.53
2017-08-19T08:48:28.134Z,10.23
2017-08-19T08:50:56.391Z,8.83
2017-08-19T08:53:24.617Z,14.83
2017-08-19T08:55:52.095Z,9.10
2017-08-19T08:58:20.313Z,12.53
2017-08-19T09:00:47.796Z,14.07
2017-08-19T09:03:16.052Z,9.97
2017-08-19T09:05:44.311Z,12.80
2017-08-19T09:08:12.568Z,6.87
2017-08-19T09:10:40.828Z,13.40
2017-08-19T09:13:08.479Z,12.07
2017-08-19T09:15:36.024Z,10.47
2017-08-19T09:18:04.492Z,13.33
2017-08-19T09:20:32.756Z,10.50
2017-08-19T09:23:00.987Z,11.40
2017-08-19T09:25:28.497Z,12.93
2017-08-19T09:27:55.996Z,15.50
2017-08-19T09:30:24.256Z,11.67
2017-08-19T09:32:52.516Z,10.67
2017-08-19T09:35:20.739Z,11.53
2017-08-19T09:37:48.320Z,13.13
2017-08-19T09:40:16.543Z,14.10
2017-08-19T09:42:44.034Z,14.73
2017-08-19T09:45:12.479Z,10.87
2017-08-19T09:47:40.848Z,13.33
2017-08-19T09:50:08.864Z,17.93
2017-08-19T09:52:36.444Z,12.50
2017-08-19T09:55:04.714Z,11.60
2017-08-19T09:57:32.971Z,10.83
2017-08-19T10:00:01.532Z,13.67
2017-08-19T10:02:29.753Z,11.70
2017-08-19T10:04:57.239Z,12.70
2017-08-19T10:07:25.464Z,14.90
2017-08-19T10:09:54.787Z,8.70
2017-08-19T10:12:22.323Z,8.60
2017-08-19T10:14:50.629Z,9.10
2017-08-19T10:17:18.083Z,14.00
2017-08-19T10:19:45.577Z,12.90
2017-08-19T10:22:13.808Z,8.23
2017-08-19T10:24:41.267Z,11.93
2017-08-19T10:27:09.499Z,10.13
2017-08-19T10:29:36.956Z,9.20
2017-08-19T10:32:04.408Z,11.30
2017-08-19T10:34:32.055Z,10.50
2017-08-19T10:37:00.321Z,7.03
2017-08-19T10:39:27.861Z,9.50
2017-08-19T10:41:55.323Z,8.37
2017-08-19T10:44:23.673Z,10.10
2017-08-19T10:46:51.888Z,7.73
2017-08-19T10:49:19.363Z,9.33
2017-08-19T10:51:46.904Z,10.93
2017-08-19T10:54:14.449Z,6.17
2017-08-19T10:56:42.158Z,8.97
2017-08-19T10:59:09.644Z,14.50
2017-08-19T11:01:37.927Z,10.77
2017-08-19T11:04:06.137Z,8.17
2017-08-19T11:06:33.587Z,9.23
2017-08-19T11:09:01.144Z,18.70
2017-08-19T11:11:28.608Z,8.80
2017-08-19T11:13:56.131Z,5.40
2017-08-19T11:16:24.696Z,6.50
2017-08-19T11:18:52.955Z,5.00
2017-08-19T11:21:20.411Z,5.37
2017-08-19T11:23:48.860Z,12.70
2017-08-19T11:26:16.324Z,9.47
2017-08-19T11:28:43.792Z,9.73
2017-08-19T11:31:11.293Z,7.57
2017-08-19T11:33:39.511Z,8.10
2017-08-19T11:36:06.987Z,8.90
2017-08-19T11:38:34.535Z,8.63
2017-08-19T11:41:02.016Z,5.97
2017-08-19T11:43:29.468Z,7.80
2017-08-19T11:45:56.904Z,5.23
2017-08-19T11:48:24.379Z,10.37
2017-08-19T11:50:51.836Z,8.30
2017-08-19T11:53:19.383Z,9.60
2017-08-19T11:55:47.027Z,10.90
2017-08-19T11:58:14.575Z,9.67
2017-08-19T12:00:42.838Z,7.03
2017-08-19T12:03:11.076Z,7.33
2017-08-19T12:05:38.529Z,5.67
2017-08-19T12:08:06.082Z,4.10
2017-08-19T12:10:34.345Z,8.47
2017-08-19T12:13:02.644Z,9.67
2017-08-19T12:15:30.208Z,5.83
2017-08-19T12:17:57.687Z,7.77
2017-08-19T12:20:25.155Z,8.53
2017-08-19T12:22:52.665Z,3.97
2017-08-19T12:25:20.111Z,3.60
2017-08-19T12:27:47.620Z,5.60
2017-08-19T12:30:15.291Z,5.60
2017-08-19T12:32:42.844Z,5.77
2017-08-19T12:35:10.310Z,3.97
2017-08-19T12:37:37.876Z,5.53
2017-08-19T12:40:05.376Z,4.43
2017-08-19T12:42:32.915Z,9.13
2017-08-19T12:45:00.560Z,9.73
2017-08-19T12:47:28.109Z,7.30
2017-08-19T12:49:56.327Z,5.70
2017-08-19T12:52:23.809Z,5.37
2017-08-19T12:54:51.351Z,10.10
2017-08-19T12:57:19.612Z,10.40
2017-08-19T12:59:48.080Z,6.13
2017-08-19T13:02:16.340Z,4.97
2017-08-19T13:04:44.595Z,6.23
2017-08-19T13:07:12.857Z,12.10
2017-08-19T13:09:41.119Z,12.47
2017-08-19T13:12:09.340Z,11.57
2017-08-19T13:14:36.924Z,15.23
2017-08-19T13:17:04.470Z,8.90
2017-08-19T13:19:32.699Z,11.03
2017-08-19T13:22:00.151Z,10.33
2017-08-19T13:24:27.627Z,4.03
2017-08-19T13:26:55.864Z,5.00
2017-08-19T13:29:23.408Z,5.53
2017-08-19T13:31:50.952Z,4.03
2017-08-19T13:34:18.496Z,3.30
2017-08-19T13:36:45.951Z,4.23
2017-08-19T13:39:14.400Z,4.50
2017-08-19T13:41:41.859Z,3.47
2017-08-19T13:44:10.071Z,3.17
2017-08-19T13:46:37.535Z,2.40
2017-08-19T13:49:04.984Z,4.90
2017-08-19T13:51:32.531Z,3.03
2017-08-19T13:53:59.999Z,4.37
2017-08-19T13:56:27.519Z,3.17
2017-08-19T13:58:55.776Z,4.53
2017-08-19T14:01:24.163Z,6.23
2017-08-19T14:03:51.656Z,4.70
2017-08-19T14:06:19.119Z,3.87
2017-08-19T14:08:46.646Z,4.43
2017-08-19T14:11:14.173Z,13.53
2017-08-19T14:13:41.620Z,7.30
2017-08-19T14:16:09.263Z,8.80
2017-08-19T14:18:37.543Z,6.47
2017-08-19T14:21:05.820Z,8.13
2017-08-19T14:23:33.333Z,11.90
2017-08-19T14:26:01.710Z,11.37
2017-08-19T14:28:29.246Z,12.23
2017-08-19T14:30:57.489Z,11.17
2017-08-19T14:33:24.936Z,8.30
2017-08-19T14:35:52.415Z,8.23
2017-08-19T14:38:19.880Z,8.03
2017-08-19T14:40:47.331Z,6.93
2017-08-19T14:43:14.956Z,7.23
2017-08-19T14:45:42.445Z,5.87
2017-08-19T14:48:10.711Z,6.90
2017-08-19T14:50:38.198Z,4.50
2017-08-19T14:53:05.647Z,4.60
2017-08-19T14:55:33.134Z,9.00
2017-08-19T14:58:00.680Z,7.73
2017-08-19T15:00:29.310Z,4.03
2017-08-19T15:02:56.759Z,4.60
2017-08-19T15:05:24.244Z,4.13
2017-08-19T15:07:51.765Z,3.33
2017-08-19T15:10:19.217Z,4.13
2017-08-19T15:12:47.572Z,2.50
2017-08-19T15:15:15.788Z,5.83
2017-08-19T15:17:43.239Z,2.30
2017-08-19T15:20:10.918Z,3.73
2017-08-19T15:22:39.135Z,1.90
2017-08-19T15:25:06.619Z,3.57
2017-08-19T15:27:35.076Z,2.50
2017-08-19T15:30:02.532Z,5.00
2017-08-19T15:32:30.747Z,5.33
2017-08-19T15:34:58.355Z,3.83
2017-08-19T15:37:25.857Z,4.50
2017-08-19T15:39:53.313Z,2.90
2017-08-19T15:42:21.774Z,1.90
2017-08-19T15:44:49.229Z,4.53
2017-08-19T15:47:16.685Z,5.20
2017-08-19T15:49:44.171Z,3.10
2017-08-19T15:52:11.624Z,3.30
2017-08-19T15:54:39.180Z,6.00
2017-08-19T15:57:07.393Z,3.80
2017-08-19T15:59:34.853Z,4.17
2017-08-19T16:02:02.524Z,6.83
2017-08-19T16:04:30.064Z,3.47
2017-08-19T16:06:58.283Z,3.57
2017-08-19T16:09:25.760Z,3.63
2017-08-19T16:11:53.313Z,1.70
2017-08-19T16:14:21.570Z,2.90
2017-08-19T16:16:49.037Z,4.83
2017-08-19T16:19:16.560Z,3.20
2017-08-19T16:21:45.020Z,3.90
2017-08-19T16:24:12.476Z,7.50
2017-08-19T16:26:39.928Z,3.10
2017-08-19T16:29:07.484Z,2.53
2017-08-19T16:31:35.699Z,2.10
2017-08-19T16:34:03.156Z,2.80
2017-08-19T16:36:30.636Z,3.00
2017-08-19T16:38:58.891Z,3.00
2017-08-19T16:41:26.633Z,5.33
2017-08-19T16:43:54.075Z,3.70
2017-08-19T16:46:22.296Z,6.00
2017-08-19T16:48:49.904Z,2.10
2017-08-19T16:51:17.358Z,3.63
2017-08-19T16:53:44.811Z,6.33
2017-08-19T16:56:12.293Z,12.63
2017-08-19T16:58:39.743Z,2.63
2017-08-19T17:01:07.192Z,3.23
2017-08-19T17:03:35.654Z,8.83
2017-08-19T17:06:03.104Z,5.50
2017-08-19T17:08:31.324Z,4.80
2017-08-19T17:10:58.798Z,3.20
2017-08-19T17:13:27.011Z,4.17
2017-08-19T17:15:54.456Z,5.00
2017-08-19T17:18:21.917Z,5.40
2017-08-19T17:20:49.435Z,4.53
2017-08-19T17:23:17.643Z,4.27
2017-08-19T17:25:45.091Z,3.63
2017-08-19T17:28:12.761Z,3.63
2017-08-19T17:30:40.208Z,5.67
2017-08-19T17:33:08.428Z,7.17
2017-08-19T17:35:36.107Z,5.03
2017-08-19T17:38:04.328Z,4.97
2017-08-19T17:40:31.785Z,4.00
2017-08-19T17:42:59.243Z,3.73
2017-08-19T17:45:26.699Z,4.10
2017-08-19T17:47:55.147Z,6.53
2017-08-19T17:50:22.604Z,6.07
2017-08-19T17:52:50.052Z,5.70
2017-08-19T17:55:18.427Z,5.80
2017-08-19T17:57:45.885Z,10.30
2017-08-19T18:00:13.336Z,8.20
2017-08-19T18:02:40.819Z,4.90
2017-08-19T18:05:08.278Z,7.40
2017-08-19T18:07:36.487Z,8.63
2017-08-19T18:10:03.973Z,3.73
2017-08-19T18:12:32.191Z,4.60
2017-08-19T18:14:59.639Z,4.73
2017-08-19T18:17:27.095Z,6.17
2017-08-19T18:19:54.565Z,3.73
2017-08-19T18:22:22.016Z,4.27
2017-08-19T18:24:49.468Z,4.93
2017-08-19T18:27:16.936Z,4.93
2017-08-19T18:29:45.147Z,6.30
2017-08-19T18:32:12.596Z,6.17
2017-08-19T18:34:40.076Z,6.77
2017-08-19T18:37:07.532Z,4.93
2017-08-19T18:39:35.239Z,5.90
2017-08-19T18:42:02.702Z,5.37
2017-08-19T18:44:30.920Z,7.20
2017-08-19T18:46:58.408Z,6.87
2017-08-19T18:49:25.861Z,8.33
2017-08-19T18:51:53.316Z,8.27
2017-08-19T18:54:21.020Z,6.83
2017-08-19T18:56:49.245Z,6.30
2017-08-19T18:59:16.700Z,9.63
2017-08-19T19:01:44.372Z,8.40
2017-08-19T19:04:11.828Z,9.00
2017-08-19T19:06:39.280Z,6.83
2017-08-19T19:09:06.753Z,10.70
2017-08-19T19:11:34.208Z,8.37
2017-08-19T19:14:01.663Z,7.50
2017-08-19T19:16:29.156Z,10.27
2017-08-19T19:18:56.623Z,10.20
2017-08-19T19:21:24.084Z,13.53
2017-08-19T19:23:51.743Z,8.20
2017-08-19T19:26:19.195Z,11.90
2017-08-19T19:28:47.420Z,10.40
2017-08-19T19:31:14.891Z,10.10
2017-08-19T19:33:42.348Z,10.27
2017-08-19T19:36:09.800Z,8.73
2017-08-19T19:38:38.189Z,11.30
2017-08-19T19:41:05.682Z,8.30
2017-08-19T19:43:33.324Z,8.23
2017-08-19T19:46:01.544Z,8.17
2017-08-19T19:48:28.999Z,12.47
2017-08-19T19:50:56.491Z,11.20
2017-08-19T19:53:23.954Z,12.33
2017-08-19T19:55:51.401Z,9.50
2017-08-19T19:58:18.987Z,12.83
2017-08-19T20:00:46.443Z,10.57
2017-08-19T20:03:13.892Z,8.37
2017-08-19T20:05:42.125Z,13.03
2017-08-19T20:08:09.575Z,10.60
2017-08-19T20:10:37.828Z,11.03
2017-08-19T20:13:05.280Z,10.23
2017-08-19T20:15:32.752Z,14.43
2017-08-19T20:18:00.240Z,13.40
2017-08-19T20:20:27.704Z,13.13
2017-08-19T20:22:55.163Z,11.93
2017-08-19T20:25:22.646Z,10.63
2017-08-19T20:27:50.104Z,16.87
2017-08-19T20:30:17.563Z,11.40
2017-08-19T20:32:45.188Z,11.17
2017-08-19T20:35:12.648Z,13.03
2017-08-19T20:37:40.120Z,8.67
2017-08-19T20:40:08.369Z,10.30
2017-08-19T20:42:36.627Z,13.30
2017-08-19T20:45:04.884Z,10.90
2017-08-19T20:47:32.355Z,12.07
2017-08-19T20:49:59.819Z,10.80
2017-08-19T20:52:27.280Z,13.30
2017-08-19T20:54:54.760Z,14.80
2017-08-19T20:57:22.237Z,12.80
2017-08-19T20:59:49.699Z,12.93
2017-08-19T21:02:17.171Z,13.10
2017-08-19T21:04:45.399Z,10.40
2017-08-19T21:07:12.856Z,11.60
2017-08-19T21:09:40.339Z,11.57
2017-08-19T21:12:07.804Z,13.20
2017-08-19T21:14:35.256Z,12.73
2017-08-19T21:17:02.719Z,11.80
2017-08-19T21:19:30.175Z,14.03
2017-08-19T21:21:57.660Z,12.70
2017-08-19T21:24:25.116Z,14.00
2017-08-19T21:26:52.572Z,9.60
2017-08-19T21:29:20.052Z,10.00
2017-08-19T21:31:48.271Z,12.20
2017-08-19T21:34:15.725Z,11.47
2017-08-19T21:36:43.411Z,12.03
2017-08-19T21:39:11.644Z,9.93
2017-08-19T21:41:39.100Z,10.90
2017-08-19T21:44:06.716Z,13.33
2017-08-19T21:46:34.175Z,12.30
2017-08-19T21:49:01.638Z,16.83
2017-08-19T21:51:29.104Z,10.30
2017-08-19T21:53:56.568Z,11.37
2017-08-19T21:56:24.824Z,20.70
2017-08-19T21:58:52.284Z,10.20
2017-08-19T22:01:20.507Z,12.07
2017-08-19T22:03:47.983Z,11.17
2017-08-19T22:06:15.461Z,16.70
2017-08-19T22:08:42.952Z,11.80
2017-08-19T22:11:10.592Z,14.23
2017-08-19T22:13:38.162Z,10.33
2017-08-19T22:16:05.615Z,11.20
2017-08-19T22:18:33.112Z,13.17
2017-08-19T22:21:00.567Z,12.43
2017-08-19T22:23:28.844Z,13.50
2017-08-19T22:25:57.091Z,14.07
2017-08-19T22:28:25.371Z,18.33
2017-08-19T22:30:53.624Z,13.50
2017-08-19T22:33:21.880Z,11.30
2017-08-19T22:35:50.111Z,13.37
2017-08-19T22:38:17.599Z,20.47
2017-08-19T22:40:45.068Z,15.37
2017-08-19T22:43:12.531Z,11.97
2017-08-19T22:45:40.011Z,22.90
2017-08-19T22:48:07.469Z,15.73
2017-08-19T22:50:34.984Z,16.40
2017-08-19T22:53:03.242Z,14.90
2017-08-19T22:55:30.695Z,18.23
2017-08-19T22:57:58.153Z,12.13
2017-08-19T23:00:25.632Z,12.93
2017-08-19T23:02:53.099Z,14.27
2017-08-19T23:05:20.559Z,14.77
2017-08-19T23:07:48.827Z,13.90
2017-08-19T23:10:16.287Z,14.83
2017-08-19T23:12:43.744Z,18.13
2017-08-19T23:15:11.228Z,19.30
2017-08-19T23:17:38.693Z,14.23
2017-08-19T23:20:06.922Z,16.47
2017-08-19T23:22:34.588Z,15.30
2017-08-19T23:25:02.813Z,17.90
2017-08-19T23:27:30.274Z,20.43
2017-08-19T23:29:57.848Z,21.30
2017-08-19T23:32:26.078Z,15.23
2017-08-19T23:34:53.543Z,15.97
2017-08-19T23:37:21.051Z,18.90
2017-08-19T23:39:48.515Z,21.17
2017-08-19T23:42:16.072Z,16.27
2017-08-19T23:44:44.320Z,23.40
2017-08-19T23:47:11.874Z,22.00
2017-08-19T23:49:40.127Z,23.00
2017-08-19T23:52:08.600Z,20.80
2017-08-19T23:54:36.860Z,27.03
2017-08-19T23:57:05.088Z,19.37
2017-08-19T23:59:32.579Z,17.90
